sensor_id;sensor_type;location;lat;lon;timestamp;P1;durP1;ratioP1;P2;durP2;ratioP2
60468;SDS011;46316;47.582;10.238;2022-10-16T00:02:23;1.58;;;1.35;;
60468;SDS011;46316;47.582;10.238;2022-10-16T00:04:49;1.80;;;1.40;;
60468;SDS011;46316;47.582;10.238;2022-10-16T00:07:14;3.75;;;1.35;;
60468;SDS011;46316;47.582;10.238;2022-10-16T00:09:40;3.85;;;1.38;;
60468;SDS011;46316;47.582;10.238;2022-10-16T00:12:06;5.45;;;1.73;;
60468;SDS011;46316;47.582;10.238;2022-10-16T00:14:32;1.67;;;1.38;;
60468;SDS011;46316;47.582;10.238;2022-10-16T00:16:58;5.18;;;1.60;;
60468;SDS011;46316;47.582;10.238;2022-10-16T00:19:23;1.55;;;1.33;;
60468;SDS011;46316;47.582;10.238;2022-10-16T00:21:49;2.08;;;1.30;;
60468;SDS011;46316;47.582;10.238;2022-10-16T00:24:14;4.32;;;1.40;;
60468;SDS011;46316;47.582;10.238;2022-10-16T00:26:40;2.20;;;1.30;;
60468;SDS011;46316;47.582;10.238;2022-10-16T00:29:06;1.42;;;1.30;;
60468;SDS011;46316;47.582;10.238;2022-10-16T00:31:32;2.65;;;1.30;;
60468;SDS011;46316;47.582;10.238;2022-10-16T00:33:58;1.15;;;0.90;;
60468;SDS011;46316;47.582;10.238;2022-10-16T00:36:24;1.33;;;1.00;;
60468;SDS011;46316;47.582;10.238;2022-10-16T00:38:51;4.13;;;1.30;;
60468;SDS011;46316;47.582;10.238;2022-10-16T00:41:19;5.53;;;1.33;;
60468;SDS011;46316;47.582;10.238;2022-10-16T00:43:46;4.82;;;1.40;;
60468;SDS011;46316;47.582;10.238;2022-10-16T00:46:20;1.75;;;1.00;;
60468;SDS011;46316;47.582;10.238;2022-10-16T00:49:27;2.53;;;1.10;;
60468;SDS011;46316;47.582;10.238;2022-10-16T00:51:47;0.95;;;0.90;;
60468;SDS011;46316;47.582;10.238;2022-10-16T00:54:19;2.17;;;1.10;;
60468;SDS011;46316;47.582;10.238;2022-10-16T00:56:56;1.02;;;0.93;;
60468;SDS011;46316;47.582;10.238;2022-10-16T00:59:27;1.30;;;1.00;;
60468;SDS011;46316;47.582;10.238;2022-10-16T01:02:01;2.55;;;0.90;;
60468;SDS011;46316;47.582;10.238;2022-10-16T01:04:29;3.60;;;1.00;;
60468;SDS011;46316;47.582;10.238;2022-10-16T01:09:43;2.08;;;0.98;;
60468;SDS011;46316;47.582;10.238;2022-10-16T01:15:25;2.03;;;0.90;;
60468;SDS011;46316;47.582;10.238;2022-10-16T01:20:38;1.23;;;1.10;;
60468;SDS011;46316;47.582;10.238;2022-10-16T01:28:51;1.40;;;1.00;;
60468;SDS011;46316;47.582;10.238;2022-10-16T01:31:42;1.15;;;1.00;;
60468;SDS011;46316;47.582;10.238;2022-10-16T01:34:14;4.10;;;1.00;;
60468;SDS011;46316;47.582;10.238;2022-10-16T01:36:47;2.60;;;1.48;;
60468;SDS011;46316;47.582;10.238;2022-10-16T01:39:18;1.95;;;1.20;;
60468;SDS011;46316;47.582;10.238;2022-10-16T01:41:48;3.92;;;1.00;;
60468;SDS011;46316;47.582;10.238;2022-10-16T01:44:21;2.22;;;0.90;;
60468;SDS011;46316;47.582;10.238;2022-10-16T01:46:50;1.17;;;1.08;;
60468;SDS011;46316;47.582;10.238;2022-10-16T01:49:18;1.42;;;1.00;;
60468;SDS011;46316;47.582;10.238;2022-10-16T01:51:46;1.80;;;0.77;;
60468;SDS011;46316;47.582;10.238;2022-10-16T01:54:16;5.88;;;1.10;;
60468;SDS011;46316;47.582;10.238;2022-10-16T01:56:45;1.30;;;0.93;;
60468;SDS011;46316;47.582;10.238;2022-10-16T01:59:13;1.77;;;0.95;;
60468;SDS011;46316;47.582;10.238;2022-10-16T02:01:44;1.45;;;1.00;;
60468;SDS011;46316;47.582;10.238;2022-10-16T02:04:20;0.98;;;0.98;;
60468;SDS011;46316;47.582;10.238;2022-10-16T02:06:52;3.45;;;0.88;;
60468;SDS011;46316;47.582;10.238;2022-10-16T02:09:18;2.08;;;0.60;;
60468;SDS011;46316;47.582;10.238;2022-10-16T02:11:43;0.88;;;0.88;;
60468;SDS011;46316;47.582;10.238;2022-10-16T02:14:09;3.25;;;1.00;;
60468;SDS011;46316;47.582;10.238;2022-10-16T02:16:39;6.18;;;1.15;;
60468;SDS011;46316;47.582;10.238;2022-10-16T02:19:06;1.42;;;0.70;;
60468;SDS011;46316;47.582;10.238;2022-10-16T02:25:05;1.13;;;0.80;;
60468;SDS011;46316;47.582;10.238;2022-10-16T02:29:53;3.50;;;0.60;;
60468;SDS011;46316;47.582;10.238;2022-10-16T02:32:24;1.83;;;0.85;;
60468;SDS011;46316;47.582;10.238;2022-10-16T02:34:56;2.47;;;0.90;;
60468;SDS011;46316;47.582;10.238;2022-10-16T02:37:23;2.13;;;0.98;;
60468;SDS011;46316;47.582;10.238;2022-10-16T02:39:50;4.30;;;0.80;;
60468;SDS011;46316;47.582;10.238;2022-10-16T02:42:17;1.38;;;0.80;;
60468;SDS011;46316;47.582;10.238;2022-10-16T02:44:43;1.75;;;0.70;;
60468;SDS011;46316;47.582;10.238;2022-10-16T02:47:09;0.60;;;0.60;;
60468;SDS011;46316;47.582;10.238;2022-10-16T02:49:34;4.95;;;1.00;;
60468;SDS011;46316;47.582;10.238;2022-10-16T02:52:00;2.92;;;0.73;;
60468;SDS011;46316;47.582;10.238;2022-10-16T02:54:25;0.63;;;0.63;;
60468;SDS011;46316;47.582;10.238;2022-10-16T02:56:51;0.77;;;0.77;;
60468;SDS011;46316;47.582;10.238;2022-10-16T02:59:17;1.58;;;0.73;;
60468;SDS011;46316;47.582;10.238;2022-10-16T03:01:42;0.70;;;0.70;;
60468;SDS011;46316;47.582;10.238;2022-10-16T03:04:08;3.45;;;1.02;;
60468;SDS011;46316;47.582;10.238;2022-10-16T03:06:34;1.08;;;0.93;;
60468;SDS011;46316;47.582;10.238;2022-10-16T03:08:59;1.55;;;0.90;;
60468;SDS011;46316;47.582;10.238;2022-10-16T03:11:25;3.20;;;0.95;;
60468;SDS011;46316;47.582;10.238;2022-10-16T03:13:51;3.65;;;0.80;;
60468;SDS011;46316;47.582;10.238;2022-10-16T03:16:17;1.15;;;0.82;;
60468;SDS011;46316;47.582;10.238;2022-10-16T03:18:42;0.75;;;0.43;;
60468;SDS011;46316;47.582;10.238;2022-10-16T03:21:08;3.50;;;1.27;;
60468;SDS011;46316;47.582;10.238;2022-10-16T03:23:33;4.95;;;0.50;;
60468;SDS011;46316;47.582;10.238;2022-10-16T03:25:59;2.55;;;0.98;;
60468;SDS011;46316;47.582;10.238;2022-10-16T03:28:25;0.57;;;0.57;;
60468;SDS011;46316;47.582;10.238;2022-10-16T03:30:50;3.00;;;0.70;;
60468;SDS011;46316;47.582;10.238;2022-10-16T03:33:16;1.67;;;0.70;;
60468;SDS011;46316;47.582;10.238;2022-10-16T03:35:41;2.58;;;0.80;;
60468;SDS011;46316;47.582;10.238;2022-10-16T03:38:07;3.60;;;0.80;;
60468;SDS011;46316;47.582;10.238;2022-10-16T03:40:33;0.82;;;0.50;;
60468;SDS011;46316;47.582;10.238;2022-10-16T03:42:58;0.60;;;0.60;;
60468;SDS011;46316;47.582;10.238;2022-10-16T03:45:24;2.05;;;0.68;;
60468;SDS011;46316;47.582;10.238;2022-10-16T03:47:51;2.47;;;0.50;;
60468;SDS011;46316;47.582;10.238;2022-10-16T03:50:16;0.70;;;0.70;;
60468;SDS011;46316;47.582;10.238;2022-10-16T03:52:42;1.58;;;0.98;;
60468;SDS011;46316;47.582;10.238;2022-10-16T03:55:07;2.92;;;0.75;;
60468;SDS011;46316;47.582;10.238;2022-10-16T03:57:33;2.63;;;0.80;;
60468;SDS011;46316;47.582;10.238;2022-10-16T03:59:59;1.00;;;0.80;;
60468;SDS011;46316;47.582;10.238;2022-10-16T04:02:24;0.80;;;0.70;;
60468;SDS011;46316;47.582;10.238;2022-10-16T04:04:50;0.57;;;0.57;;
60468;SDS011;46316;47.582;10.238;2022-10-16T04:07:16;2.35;;;0.70;;
60468;SDS011;46316;47.582;10.238;2022-10-16T04:09:41;1.00;;;0.80;;
60468;SDS011;46316;47.582;10.238;2022-10-16T04:12:07;2.22;;;0.90;;
60468;SDS011;46316;47.582;10.238;2022-10-16T04:14:33;0.88;;;0.77;;
60468;SDS011;46316;47.582;10.238;2022-10-16T04:16:59;2.38;;;0.82;;
60468;SDS011;46316;47.582;10.238;2022-10-16T04:19:24;1.73;;;0.50;;
60468;SDS011;46316;47.582;10.238;2022-10-16T04:21:50;1.48;;;0.50;;
60468;SDS011;46316;47.582;10.238;2022-10-16T04:24:15;1.10;;;0.77;;
60468;SDS011;46316;47.582;10.238;2022-10-16T04:26:41;1.88;;;0.70;;
60468;SDS011;46316;47.582;10.238;2022-10-16T04:29:06;2.83;;;0.60;;
60468;SDS011;46316;47.582;10.238;2022-10-16T04:31:32;0.40;;;0.40;;
60468;SDS011;46316;47.582;10.238;2022-10-16T04:33:58;1.20;;;0.57;;
60468;SDS011;46316;47.582;10.238;2022-10-16T04:36:24;0.80;;;0.60;;
60468;SDS011;46316;47.582;10.238;2022-10-16T04:38:49;0.55;;;0.50;;
60468;SDS011;46316;47.582;10.238;2022-10-16T04:41:15;0.52;;;0.50;;
60468;SDS011;46316;47.582;10.238;2022-10-16T04:43:40;1.30;;;0.75;;
60468;SDS011;46316;47.582;10.238;2022-10-16T04:46:06;1.83;;;0.80;;
60468;SDS011;46316;47.582;10.238;2022-10-16T04:48:32;0.68;;;0.63;;
60468;SDS011;46316;47.582;10.238;2022-10-16T04:50:58;0.52;;;0.47;;
60468;SDS011;46316;47.582;10.238;2022-10-16T04:53:23;2.38;;;0.52;;
60468;SDS011;46316;47.582;10.238;2022-10-16T04:55:49;1.52;;;0.80;;
60468;SDS011;46316;47.582;10.238;2022-10-16T04:58:15;0.80;;;0.80;;
60468;SDS011;46316;47.582;10.238;2022-10-16T05:00:41;0.30;;;0.30;;
60468;SDS011;46316;47.582;10.238;2022-10-16T05:03:06;4.05;;;1.08;;
60468;SDS011;46316;47.582;10.238;2022-10-16T05:05:33;0.85;;;0.77;;
60468;SDS011;46316;47.582;10.238;2022-10-16T05:08:00;0.55;;;0.55;;
60468;SDS011;46316;47.582;10.238;2022-10-16T05:10:26;1.55;;;0.65;;
60468;SDS011;46316;47.582;10.238;2022-10-16T05:12:51;2.03;;;1.00;;
60468;SDS011;46316;47.582;10.238;2022-10-16T05:15:17;0.75;;;0.63;;
60468;SDS011;46316;47.582;10.238;2022-10-16T05:17:43;1.95;;;0.70;;
60468;SDS011;46316;47.582;10.238;2022-10-16T05:20:09;2.50;;;0.70;;
60468;SDS011;46316;47.582;10.238;2022-10-16T05:22:34;0.90;;;0.90;;
60468;SDS011;46316;47.582;10.238;2022-10-16T05:25:00;2.63;;;0.85;;
60468;SDS011;46316;47.582;10.238;2022-10-16T05:27:26;2.00;;;0.82;;
60468;SDS011;46316;47.582;10.238;2022-10-16T05:29:51;0.77;;;0.77;;
60468;SDS011;46316;47.582;10.238;2022-10-16T05:32:18;1.05;;;0.75;;
60468;SDS011;46316;47.582;10.238;2022-10-16T05:34:44;0.98;;;0.88;;
60468;SDS011;46316;47.582;10.238;2022-10-16T05:37:10;1.13;;;0.90;;
60468;SDS011;46316;47.582;10.238;2022-10-16T05:39:36;1.55;;;0.90;;
60468;SDS011;46316;47.582;10.238;2022-10-16T05:42:03;0.88;;;0.88;;
60468;SDS011;46316;47.582;10.238;2022-10-16T05:44:29;3.13;;;1.30;;
60468;SDS011;46316;47.582;10.238;2022-10-16T05:46:54;1.30;;;0.80;;
60468;SDS011;46316;47.582;10.238;2022-10-16T05:49:21;2.10;;;1.00;;
60468;SDS011;46316;47.582;10.238;2022-10-16T05:51:47;2.33;;;0.90;;
60468;SDS011;46316;47.582;10.238;2022-10-16T05:54:12;6.95;;;1.00;;
60468;SDS011;46316;47.582;10.238;2022-10-16T05:56:38;0.88;;;0.63;;
60468;SDS011;46316;47.582;10.238;2022-10-16T05:59:04;4.90;;;1.00;;
60468;SDS011;46316;47.582;10.238;2022-10-16T06:01:30;1.95;;;1.10;;
60468;SDS011;46316;47.582;10.238;2022-10-16T06:03:56;1.45;;;1.05;;
60468;SDS011;46316;47.582;10.238;2022-10-16T06:06:23;4.93;;;1.63;;
60468;SDS011;46316;47.582;10.238;2022-10-16T06:08:51;4.85;;;2.10;;
60468;SDS011;46316;47.582;10.238;2022-10-16T06:11:21;3.35;;;2.88;;
60468;SDS011;46316;47.582;10.238;2022-10-16T06:13:53;4.55;;;3.33;;
60468;SDS011;46316;47.582;10.238;2022-10-16T06:16:21;5.32;;;2.72;;
60468;SDS011;46316;47.582;10.238;2022-10-16T06:18:47;2.83;;;2.38;;
60468;SDS011;46316;47.582;10.238;2022-10-16T06:21:20;3.58;;;2.00;;
60468;SDS011;46316;47.582;10.238;2022-10-16T06:23:49;5.18;;;2.33;;
60468;SDS011;46316;47.582;10.238;2022-10-16T06:26:17;5.20;;;3.53;;
60468;SDS011;46316;47.582;10.238;2022-10-16T06:28:44;10.32;;;4.43;;
60468;SDS011;46316;47.582;10.238;2022-10-16T06:31:10;9.65;;;5.78;;
60468;SDS011;46316;47.582;10.238;2022-10-16T06:33:37;7.70;;;5.45;;
60468;SDS011;46316;47.582;10.238;2022-10-16T06:36:04;8.80;;;5.90;;
60468;SDS011;46316;47.582;10.238;2022-10-16T06:38:33;7.68;;;5.40;;
60468;SDS011;46316;47.582;10.238;2022-10-16T06:40:59;6.50;;;3.63;;
60468;SDS011;46316;47.582;10.238;2022-10-16T06:43:25;6.65;;;2.08;;
60468;SDS011;46316;47.582;10.238;2022-10-16T06:45:52;4.95;;;2.00;;
60468;SDS011;46316;47.582;10.238;2022-10-16T06:48:17;1.98;;;1.33;;
60468;SDS011;46316;47.582;10.238;2022-10-16T06:50:43;4.45;;;1.70;;
60468;SDS011;46316;47.582;10.238;2022-10-16T06:53:09;3.10;;;1.20;;
60468;SDS011;46316;47.582;10.238;2022-10-16T06:55:34;4.28;;;1.50;;
60468;SDS011;46316;47.582;10.238;2022-10-16T06:58:00;3.15;;;1.50;;
60468;SDS011;46316;47.582;10.238;2022-10-16T07:00:25;2.75;;;1.08;;
60468;SDS011;46316;47.582;10.238;2022-10-16T07:02:51;1.40;;;1.30;;
60468;SDS011;46316;47.582;10.238;2022-10-16T07:05:16;2.30;;;1.48;;
60468;SDS011;46316;47.582;10.238;2022-10-16T07:07:42;2.38;;;1.33;;
60468;SDS011;46316;47.582;10.238;2022-10-16T07:10:07;2.58;;;1.50;;
60468;SDS011;46316;47.582;10.238;2022-10-16T07:12:33;3.95;;;1.30;;
60468;SDS011;46316;47.582;10.238;2022-10-16T07:14:59;4.05;;;0.90;;
60468;SDS011;46316;47.582;10.238;2022-10-16T07:17:24;3.50;;;1.40;;
60468;SDS011;46316;47.582;10.238;2022-10-16T07:19:50;4.53;;;1.13;;
60468;SDS011;46316;47.582;10.238;2022-10-16T07:22:18;2.38;;;1.20;;
60468;SDS011;46316;47.582;10.238;2022-10-16T07:24:43;4.88;;;1.83;;
60468;SDS011;46316;47.582;10.238;2022-10-16T07:27:09;1.00;;;0.68;;
60468;SDS011;46316;47.582;10.238;2022-10-16T07:29:35;1.35;;;0.90;;
60468;SDS011;46316;47.582;10.238;2022-10-16T07:32:01;3.65;;;1.20;;
60468;SDS011;46316;47.582;10.238;2022-10-16T07:34:27;1.13;;;1.00;;
60468;SDS011;46316;47.582;10.238;2022-10-16T07:36:52;1.45;;;1.10;;
60468;SDS011;46316;47.582;10.238;2022-10-16T07:39:21;1.80;;;1.00;;
60468;SDS011;46316;47.582;10.238;2022-10-16T07:41:47;2.88;;;1.05;;
60468;SDS011;46316;47.582;10.238;2022-10-16T07:45:29;1.25;;;1.00;;
60468;SDS011;46316;47.582;10.238;2022-10-16T07:48:52;1.95;;;1.38;;
60468;SDS011;46316;47.582;10.238;2022-10-16T07:54:59;4.10;;;1.50;;
60468;SDS011;46316;47.582;10.238;2022-10-16T08:08:38;2.30;;;0.60;;
60468;SDS011;46316;47.582;10.238;2022-10-16T08:54:01;0.90;;;0.50;;
60468;SDS011;46316;47.582;10.238;2022-10-16T09:06:36;0.40;;;0.40;;
60468;SDS011;46316;47.582;10.238;2022-10-16T09:15:56;0.32;;;0.32;;
60468;SDS011;46316;47.582;10.238;2022-10-16T09:19:36;1.00;;;0.60;;
60468;SDS011;46316;47.582;10.238;2022-10-16T09:22:13;2.50;;;0.50;;
60468;SDS011;46316;47.582;10.238;2022-10-16T09:24:40;0.40;;;0.40;;
60468;SDS011;46316;47.582;10.238;2022-10-16T09:27:12;0.50;;;0.50;;
60468;SDS011;46316;47.582;10.238;2022-10-16T09:33:33;1.83;;;0.63;;
60468;SDS011;46316;47.582;10.238;2022-10-16T09:40:26;1.15;;;0.45;;
60468;SDS011;46316;47.582;10.238;2022-10-16T09:43:41;1.50;;;0.50;;
60468;SDS011;46316;47.582;10.238;2022-10-16T09:46:30;0.35;;;0.35;;
60468;SDS011;46316;47.582;10.238;2022-10-16T09:49:05;1.30;;;1.20;;
60468;SDS011;46316;47.582;10.238;2022-10-16T09:51:44;2.10;;;0.65;;
60468;SDS011;46316;47.582;10.238;2022-10-16T09:56:38;0.40;;;0.40;;
60468;SDS011;46316;47.582;10.238;2022-10-16T09:59:17;1.95;;;1.00;;
60468;SDS011;46316;47.582;10.238;2022-10-16T10:01:45;3.38;;;0.70;;
60468;SDS011;46316;47.582;10.238;2022-10-16T10:04:17;1.58;;;1.38;;
60468;SDS011;46316;47.582;10.238;2022-10-16T10:06:53;1.55;;;1.45;;
60468;SDS011;46316;47.582;10.238;2022-10-16T10:09:25;1.23;;;0.98;;
60468;SDS011;46316;47.582;10.238;2022-10-16T10:19:40;2.00;;;0.70;;
60468;SDS011;46316;47.582;10.238;2022-10-16T10:22:25;0.40;;;0.40;;
60468;SDS011;46316;47.582;10.238;2022-10-16T10:33:28;0.60;;;0.50;;
60468;SDS011;46316;47.582;10.238;2022-10-16T10:38:46;1.45;;;0.73;;
60468;SDS011;46316;47.582;10.238;2022-10-16T10:44:07;0.70;;;0.70;;
60468;SDS011;46316;47.582;10.238;2022-10-16T11:07:23;0.98;;;0.98;;
60468;SDS011;46316;47.582;10.238;2022-10-16T11:10:03;0.98;;;0.70;;
60468;SDS011;46316;47.582;10.238;2022-10-16T11:13:16;1.88;;;0.75;;
60468;SDS011;46316;47.582;10.238;2022-10-16T11:15:48;0.70;;;0.70;;
60468;SDS011;46316;47.582;10.238;2022-10-16T11:18:32;1.08;;;0.88;;
60468;SDS011;46316;47.582;10.238;2022-10-16T11:21:10;0.88;;;0.52;;
60468;SDS011;46316;47.582;10.238;2022-10-16T11:26:23;0.90;;;0.52;;
60468;SDS011;46316;47.582;10.238;2022-10-16T11:29:31;0.90;;;0.73;;
60468;SDS011;46316;47.582;10.238;2022-10-16T11:32:00;0.80;;;0.77;;
60468;SDS011;46316;47.582;10.238;2022-10-16T11:34:35;1.02;;;0.80;;
60468;SDS011;46316;47.582;10.238;2022-10-16T11:37:17;0.80;;;0.80;;
60468;SDS011;46316;47.582;10.238;2022-10-16T11:39:48;0.80;;;0.80;;
60468;SDS011;46316;47.582;10.238;2022-10-16T11:45:07;0.68;;;0.68;;
60468;SDS011;46316;47.582;10.238;2022-10-16T11:50:56;0.73;;;0.73;;
60468;SDS011;46316;47.582;10.238;2022-10-16T11:53:42;2.47;;;0.88;;
60468;SDS011;46316;47.582;10.238;2022-10-16T11:56:35;2.17;;;0.93;;
60468;SDS011;46316;47.582;10.238;2022-10-16T12:01:43;0.68;;;0.65;;
60468;SDS011;46316;47.582;10.238;2022-10-16T12:07:17;1.08;;;0.98;;
60468;SDS011;46316;47.582;10.238;2022-10-16T12:09:48;1.50;;;1.00;;
60468;SDS011;46316;47.582;10.238;2022-10-16T12:12:24;1.23;;;0.80;;
60468;SDS011;46316;47.582;10.238;2022-10-16T12:15:03;1.58;;;0.63;;
60468;SDS011;46316;47.582;10.238;2022-10-16T12:17:57;0.70;;;0.70;;
60468;SDS011;46316;47.582;10.238;2022-10-16T12:20:30;0.80;;;0.80;;
60468;SDS011;46316;47.582;10.238;2022-10-16T12:25:27;1.83;;;0.85;;
60468;SDS011;46316;47.582;10.238;2022-10-16T12:27:58;0.65;;;0.60;;
60468;SDS011;46316;47.582;10.238;2022-10-16T12:30:26;1.83;;;0.90;;
60468;SDS011;46316;47.582;10.238;2022-10-16T12:32:55;1.07;;;0.90;;
60468;SDS011;46316;47.582;10.238;2022-10-16T12:35:43;1.40;;;0.90;;
60468;SDS011;46316;47.582;10.238;2022-10-16T12:40:57;1.00;;;1.00;;
60468;SDS011;46316;47.582;10.238;2022-10-16T12:48:35;0.90;;;0.80;;
60468;SDS011;46316;47.582;10.238;2022-10-16T12:51:24;0.77;;;0.70;;
60468;SDS011;46316;47.582;10.238;2022-10-16T12:57:59;1.10;;;0.70;;
60468;SDS011;46316;47.582;10.238;2022-10-16T13:11:05;0.70;;;0.70;;
60468;SDS011;46316;47.582;10.238;2022-10-16T13:19:54;0.77;;;0.77;;
60468;SDS011;46316;47.582;10.238;2022-10-16T13:22:23;2.35;;;0.88;;
60468;SDS011;46316;47.582;10.238;2022-10-16T13:25:13;1.40;;;0.80;;
60468;SDS011;46316;47.582;10.238;2022-10-16T13:30:31;0.60;;;0.60;;
60468;SDS011;46316;47.582;10.238;2022-10-16T13:33:06;3.03;;;0.77;;
60468;SDS011;46316;47.582;10.238;2022-10-16T13:35:46;0.75;;;0.73;;
60468;SDS011;46316;47.582;10.238;2022-10-16T13:40:56;0.93;;;0.88;;
60468;SDS011;46316;47.582;10.238;2022-10-16T13:43:36;1.58;;;0.73;;
60468;SDS011;46316;47.582;10.238;2022-10-16T13:46:07;1.80;;;0.90;;
60468;SDS011;46316;47.582;10.238;2022-10-16T13:48:38;0.80;;;0.80;;
60468;SDS011;46316;47.582;10.238;2022-10-16T13:51:05;1.05;;;0.80;;
60468;SDS011;46316;47.582;10.238;2022-10-16T13:53:38;3.50;;;0.70;;
60468;SDS011;46316;47.582;10.238;2022-10-16T13:56:06;1.13;;;1.02;;
60468;SDS011;46316;47.582;10.238;2022-10-16T13:58:34;0.88;;;0.88;;
60468;SDS011;46316;47.582;10.238;2022-10-16T14:01:04;1.20;;;1.00;;
60468;SDS011;46316;47.582;10.238;2022-10-16T14:03:39;1.08;;;0.85;;
60468;SDS011;46316;47.582;10.238;2022-10-16T14:06:10;0.80;;;0.80;;
60468;SDS011;46316;47.582;10.238;2022-10-16T14:08:40;1.33;;;0.80;;
60468;SDS011;46316;47.582;10.238;2022-10-16T14:11:09;1.30;;;1.20;;
60468;SDS011;46316;47.582;10.238;2022-10-16T14:13:39;1.55;;;0.80;;
60468;SDS011;46316;47.582;10.238;2022-10-16T14:16:10;1.23;;;1.08;;
60468;SDS011;46316;47.582;10.238;2022-10-16T14:18:41;1.10;;;1.00;;
60468;SDS011;46316;47.582;10.238;2022-10-16T14:21:13;2.38;;;1.20;;
60468;SDS011;46316;47.582;10.238;2022-10-16T14:23:42;1.85;;;1.00;;
60468;SDS011;46316;47.582;10.238;2022-10-16T14:28:34;1.00;;;1.00;;
60468;SDS011;46316;47.582;10.238;2022-10-16T14:31:01;3.60;;;0.80;;
60468;SDS011;46316;47.582;10.238;2022-10-16T14:33:40;0.80;;;0.80;;
60468;SDS011;46316;47.582;10.238;2022-10-16T14:36:10;0.80;;;0.80;;
60468;SDS011;46316;47.582;10.238;2022-10-16T14:38:38;3.08;;;1.55;;
60468;SDS011;46316;47.582;10.238;2022-10-16T14:41:07;1.77;;;1.00;;
60468;SDS011;46316;47.582;10.238;2022-10-16T14:43:34;1.33;;;0.95;;
60468;SDS011;46316;47.582;10.238;2022-10-16T14:46:10;0.80;;;0.80;;
60468;SDS011;46316;47.582;10.238;2022-10-16T14:48:42;1.85;;;1.00;;
60468;SDS011;46316;47.582;10.238;2022-10-16T14:51:14;0.90;;;0.90;;
60468;SDS011;46316;47.582;10.238;2022-10-16T14:53:45;1.05;;;0.70;;
60468;SDS011;46316;47.582;10.238;2022-10-16T14:58:44;1.17;;;1.00;;
60468;SDS011;46316;47.582;10.238;2022-10-16T15:01:10;1.40;;;1.08;;
60468;SDS011;46316;47.582;10.238;2022-10-16T15:03:36;1.13;;;1.02;;
60468;SDS011;46316;47.582;10.238;2022-10-16T15:06:03;1.95;;;0.90;;
60468;SDS011;46316;47.582;10.238;2022-10-16T15:08:28;2.95;;;1.10;;
60468;SDS011;46316;47.582;10.238;2022-10-16T15:10:54;1.20;;;1.10;;
60468;SDS011;46316;47.582;10.238;2022-10-16T15:13:20;2.17;;;1.00;;
60468;SDS011;46316;47.582;10.238;2022-10-16T15:15:46;1.27;;;1.08;;
60468;SDS011;46316;47.582;10.238;2022-10-16T15:18:14;2.35;;;1.30;;
60468;SDS011;46316;47.582;10.238;2022-10-16T15:20:44;1.23;;;1.00;;
60468;SDS011;46316;47.582;10.238;2022-10-16T15:23:14;3.05;;;1.30;;
60468;SDS011;46316;47.582;10.238;2022-10-16T15:25:45;1.17;;;1.08;;
60468;SDS011;46316;47.582;10.238;2022-10-16T15:28:13;0.90;;;0.80;;
60468;SDS011;46316;47.582;10.238;2022-10-16T15:30:40;1.27;;;0.82;;
60468;SDS011;46316;47.582;10.238;2022-10-16T15:33:10;1.00;;;0.80;;
60468;SDS011;46316;47.582;10.238;2022-10-16T15:35:38;1.42;;;0.85;;
60468;SDS011;46316;47.582;10.238;2022-10-16T15:38:04;0.70;;;0.70;;
60468;SDS011;46316;47.582;10.238;2022-10-16T15:40:30;1.95;;;0.90;;
60468;SDS011;46316;47.582;10.238;2022-10-16T15:42:55;0.90;;;0.70;;
60468;SDS011;46316;47.582;10.238;2022-10-16T15:45:21;1.10;;;0.90;;
60468;SDS011;46316;47.582;10.238;2022-10-16T15:47:47;0.90;;;0.90;;
60468;SDS011;46316;47.582;10.238;2022-10-16T15:50:13;1.15;;;0.80;;
60468;SDS011;46316;47.582;10.238;2022-10-16T15:52:39;0.98;;;0.90;;
60468;SDS011;46316;47.582;10.238;2022-10-16T15:55:06;1.67;;;1.20;;
60468;SDS011;46316;47.582;10.238;2022-10-16T15:57:37;1.85;;;1.05;;
60468;SDS011;46316;47.582;10.238;2022-10-16T16:00:04;3.80;;;1.25;;
60468;SDS011;46316;47.582;10.238;2022-10-16T16:02:32;2.17;;;1.50;;
60468;SDS011;46316;47.582;10.238;2022-10-16T16:04:58;2.90;;;1.45;;
60468;SDS011;46316;47.582;10.238;2022-10-16T16:07:23;1.30;;;1.20;;
60468;SDS011;46316;47.582;10.238;2022-10-16T16:09:49;2.80;;;1.30;;
60468;SDS011;46316;47.582;10.238;2022-10-16T16:12:14;2.38;;;1.45;;
60468;SDS011;46316;47.582;10.238;2022-10-16T16:14:40;1.52;;;1.33;;
60468;SDS011;46316;47.582;10.238;2022-10-16T16:17:06;2.85;;;1.30;;
60468;SDS011;46316;47.582;10.238;2022-10-16T16:19:32;2.65;;;1.30;;
60468;SDS011;46316;47.582;10.238;2022-10-16T16:21:58;1.20;;;1.10;;
60468;SDS011;46316;47.582;10.238;2022-10-16T16:24:23;2.80;;;1.30;;
60468;SDS011;46316;47.582;10.238;2022-10-16T16:26:49;1.38;;;1.27;;
60468;SDS011;46316;47.582;10.238;2022-10-16T16:29:15;4.13;;;2.47;;
60468;SDS011;46316;47.582;10.238;2022-10-16T16:31:41;1.52;;;1.40;;
60468;SDS011;46316;47.582;10.238;2022-10-16T16:34:07;5.95;;;3.30;;
60468;SDS011;46316;47.582;10.238;2022-10-16T16:36:33;14.93;;;7.07;;
60468;SDS011;46316;47.582;10.238;2022-10-16T16:39:00;3.63;;;1.38;;
60468;SDS011;46316;47.582;10.238;2022-10-16T16:41:27;12.23;;;6.82;;
60468;SDS011;46316;47.582;10.238;2022-10-16T16:43:54;12.82;;;8.30;;
60468;SDS011;46316;47.582;10.238;2022-10-16T16:46:25;4.25;;;3.13;;
60468;SDS011;46316;47.582;10.238;2022-10-16T16:48:51;3.20;;;2.20;;
60468;SDS011;46316;47.582;10.238;2022-10-16T16:51:19;1.42;;;1.30;;
60468;SDS011;46316;47.582;10.238;2022-10-16T16:53:45;1.48;;;1.38;;
60468;SDS011;46316;47.582;10.238;2022-10-16T16:56:12;8.52;;;5.32;;
60468;SDS011;46316;47.582;10.238;2022-10-16T16:58:39;4.60;;;2.95;;
60468;SDS011;46316;47.582;10.238;2022-10-16T17:01:05;3.65;;;2.80;;
60468;SDS011;46316;47.582;10.238;2022-10-16T17:03:32;11.35;;;5.75;;
60468;SDS011;46316;47.582;10.238;2022-10-16T17:06:00;25.50;;;15.38;;
60468;SDS011;46316;47.582;10.238;2022-10-16T17:08:28;40.20;;;21.27;;
60468;SDS011;46316;47.582;10.238;2022-10-16T17:10:54;6.35;;;3.15;;
60468;SDS011;46316;47.582;10.238;2022-10-16T17:13:22;5.68;;;2.10;;
60468;SDS011;46316;47.582;10.238;2022-10-16T17:15:49;4.65;;;2.75;;
60468;SDS011;46316;47.582;10.238;2022-10-16T17:18:15;4.38;;;3.10;;
60468;SDS011;46316;47.582;10.238;2022-10-16T17:20:41;5.45;;;4.10;;
60468;SDS011;46316;47.582;10.238;2022-10-16T17:23:08;4.65;;;3.00;;
60468;SDS011;46316;47.582;10.238;2022-10-16T17:25:38;3.50;;;2.15;;
60468;SDS011;46316;47.582;10.238;2022-10-16T17:28:04;12.40;;;4.65;;
60468;SDS011;46316;47.582;10.238;2022-10-16T17:30:31;9.05;;;6.43;;
60468;SDS011;46316;47.582;10.238;2022-10-16T17:32:59;11.38;;;7.72;;
60468;SDS011;46316;47.582;10.238;2022-10-16T17:35:28;5.20;;;3.90;;
60468;SDS011;46316;47.582;10.238;2022-10-16T17:37:53;5.13;;;2.03;;
60468;SDS011;46316;47.582;10.238;2022-10-16T17:40:19;7.35;;;5.72;;
60468;SDS011;46316;47.582;10.238;2022-10-16T17:42:45;4.90;;;4.35;;
60468;SDS011;46316;47.582;10.238;2022-10-16T17:45:12;41.78;;;25.88;;
60468;SDS011;46316;47.582;10.238;2022-10-16T17:47:38;26.80;;;17.08;;
60468;SDS011;46316;47.582;10.238;2022-10-16T17:50:07;17.67;;;11.20;;
60468;SDS011;46316;47.582;10.238;2022-10-16T17:52:32;11.98;;;8.43;;
60468;SDS011;46316;47.582;10.238;2022-10-16T17:54:58;8.55;;;5.82;;
60468;SDS011;46316;47.582;10.238;2022-10-16T17:57:24;4.75;;;2.38;;
60468;SDS011;46316;47.582;10.238;2022-10-16T17:59:49;3.13;;;2.00;;
60468;SDS011;46316;47.582;10.238;2022-10-16T18:02:15;1.30;;;1.20;;
60468;SDS011;46316;47.582;10.238;2022-10-16T18:04:42;2.63;;;1.50;;
60468;SDS011;46316;47.582;10.238;2022-10-16T18:07:07;1.52;;;1.42;;
60468;SDS011;46316;47.582;10.238;2022-10-16T18:09:33;1.38;;;1.20;;
60468;SDS011;46316;47.582;10.238;2022-10-16T18:11:59;5.80;;;3.65;;